Terminal Aerodrome Forecast
Issued by NWS

Home | Current Version | Previous Version | Text Only | Print | Product List | Glossary On
Versions: 1 2 3 4 5 6 7 8 9 10 11 12 13 14 15 16 17 18 19 20 21 22 23 24 25 26 27 28 29 30 31 32 33 34 35 36 37 38
132
FTUS41 KBOX 280538
TAFBAF
TAF
KBAF 280538Z 2806/2906 00000KT 1/4SM FG OVC002
     FM280900 00000KT 1SM BR BKN008
     FM281300 VRB03KT P6SM SCT250
     FM281800 35004KT P6SM BKN070=

USA.gov is the U.S. government's official web portal to all federal, state and local government web resources and services.